Time,TemperatureF,DewpointF,PressureIn,WindDirection,WindDirectionDegrees,WindSpeedMPH,WindSpeedGustMPH,Humidity,HourlyPrecipIn,Conditions,Clouds,dailyrainin,SolarRadiationWatts/m^2,SoftwareType,DateUTC
2013-06-05 00:23:00,59.0,47.0,-100.00,NE,53,2.0,4.0,65,-99.99,,,0.00,0.000000,,2013-06-05 04:23:00,
2013-06-05 00:33:00,59.0,47.0,-100.00,NE,53,2.0,4.0,65,-99.99,,,0.00,0.000000,,2013-06-05 04:33:00,
2013-06-05 00:42:00,59.0,47.0,-100.00,NE,53,2.0,4.0,65,-99.99,,,0.00,0.000000,,2013-06-05 04:42:00,
2013-06-05 00:53:00,59.0,47.0,-100.00,NE,53,2.0,4.0,65,-99.99,,,0.00,0.000000,,2013-06-05 04:53:00,
2013-06-05 01:23:00,58.0,47.0,-100.00,ENE,67,4.0,5.0,68,0.00,,,0.00,0.000000,,2013-06-05 05:23:00,
2013-06-05 01:32:00,58.0,47.0,-100.00,ENE,67,4.0,5.0,68,0.00,,,0.00,0.000000,,2013-06-05 05:32:00,
2013-06-05 01:42:00,58.0,47.0,-100.00,ENE,67,4.0,5.0,68,0.00,,,0.00,0.000000,,2013-06-05 05:42:00,
2013-06-05 01:52:00,58.0,47.0,-100.00,ENE,67,4.0,5.0,68,0.00,,,0.00,0.000000,,2013-06-05 05:52:00,
2013-06-05 02:22:00,56.0,49.0,-100.00,ENE,73,3.0,5.0,76,0.00,,,0.00,0.000000,,2013-06-05 06:22:00,
2013-06-05 02:32:00,56.0,49.0,-100.00,ENE,73,3.0,5.0,76,0.00,,,0.00,0.000000,,2013-06-05 06:32:00,
2013-06-05 02:42:00,56.0,49.0,-100.00,ENE,73,3.0,5.0,76,0.00,,,0.00,0.000000,,2013-06-05 06:42:00,
2013-06-05 02:52:00,56.0,49.0,-100.00,ENE,73,3.0,5.0,76,0.00,,,0.00,0.000000,,2013-06-05 06:52:00,
2013-06-05 03:22:00,58.0,47.0,-100.00,ENE,70,4.0,6.0,66,0.00,,,0.00,0.000000,,2013-06-05 07:22:00,
2013-06-05 03:32:00,58.0,47.0,-100.00,ENE,70,4.0,6.0,66,0.00,,,0.00,0.000000,,2013-06-05 07:32:00,
2013-06-05 03:42:00,58.0,47.0,-100.00,ENE,70,4.0,6.0,66,0.00,,,0.00,0.000000,,2013-06-05 07:42:00,
2013-06-05 03:52:00,58.0,47.0,-100.00,ENE,70,4.0,6.0,66,0.00,,,0.00,0.000000,,2013-06-05 07:52:00,
2013-06-05 04:22:00,56.0,47.0,-100.00,ENE,66,3.0,5.0,73,0.00,,,0.00,0.000000,,2013-06-05 08:22:00,
2013-06-05 04:32:00,56.0,47.0,-100.00,ENE,66,3.0,5.0,73,0.00,,,0.00,0.000000,,2013-06-05 08:32:00,
2013-06-05 04:42:00,56.0,47.0,-100.00,ENE,66,3.0,5.0,73,0.00,,,0.00,0.000000,,2013-06-05 08:42:00,
2013-06-05 04:52:00,56.0,47.0,-100.00,ENE,66,3.0,5.0,73,0.00,,,0.00,0.000000,,2013-06-05 08:52:00,
2013-06-05 05:22:00,56.0,48.0,-100.00,ENE,67,3.0,5.0,74,0.00,,,0.00,0.000000,,2013-06-05 09:22:00,
2013-06-05 05:33:00,56.0,48.0,-100.00,ENE,67,3.0,5.0,74,0.00,,,0.00,0.000000,,2013-06-05 09:33:00,
2013-06-05 05:43:00,56.0,48.0,-100.00,ENE,67,3.0,5.0,74,0.00,,,0.00,0.000000,,2013-06-05 09:43:00,
2013-06-05 05:53:00,56.0,48.0,-100.00,ENE,67,3.0,5.0,74,0.00,,,0.00,0.000000,,2013-06-05 09:53:00,
2013-06-05 06:22:00,55.0,48.0,-100.00,ENE,69,5.0,7.0,76,0.00,,,0.00,0.000000,,2013-06-05 10:22:00,
2013-06-05 06:33:00,55.0,48.0,-100.00,ENE,69,5.0,7.0,76,0.00,,,0.00,0.000000,,2013-06-05 10:33:00,
2013-06-05 06:42:00,55.0,48.0,-100.00,ENE,69,5.0,7.0,76,0.00,,,0.00,0.000000,,2013-06-05 10:42:00,
2013-06-05 06:52:00,55.0,48.0,-100.00,ENE,69,5.0,7.0,76,0.00,,,0.00,0.000000,,2013-06-05 10:52:00,
2013-06-05 07:22:00,55.0,49.0,-100.00,ENE,74,5.0,7.0,79,0.00,,,0.00,5.000000,,2013-06-05 11:22:00,
2013-06-05 07:33:00,55.0,49.0,-100.00,ENE,74,5.0,7.0,79,0.00,,,0.00,5.000000,,2013-06-05 11:33:00,
2013-06-05 07:42:00,55.0,49.0,-100.00,ENE,74,5.0,7.0,79,0.00,,,0.00,5.000000,,2013-06-05 11:42:00,
2013-06-05 07:52:00,55.0,49.0,-100.00,ENE,74,5.0,7.0,79,0.00,,,0.00,5.000000,,2013-06-05 11:52:00,
2013-06-05 08:22:00,60.0,51.0,-100.00,East,79,5.0,9.0,71,0.00,,,0.00,99.000000,,2013-06-05 12:22:00,
2013-06-05 08:32:00,60.0,51.0,-100.00,East,79,5.0,9.0,71,0.00,,,0.00,99.000000,,2013-06-05 12:32:00,
2013-06-05 08:44:00,60.0,51.0,-100.00,East,79,5.0,9.0,71,0.00,,,0.00,99.000000,,2013-06-05 12:44:00,
2013-06-05 08:52:00,60.0,51.0,-100.00,East,79,5.0,9.0,71,0.00,,,0.00,99.000000,,2013-06-05 12:52:00,
2013-06-05 09:22:00,64.0,52.0,-100.00,ENE,72,5.0,10.0,65,0.00,,,0.00,213.000000,,2013-06-05 13:22:00,
2013-06-05 09:33:00,64.0,52.0,-100.00,ENE,72,5.0,10.0,65,0.00,,,0.00,213.000000,,2013-06-05 13:33:00,
2013-06-05 09:42:00,64.0,52.0,-100.00,ENE,72,5.0,10.0,65,0.00,,,0.00,213.000000,,2013-06-05 13:42:00,
2013-06-05 09:52:00,64.0,52.0,-100.00,ENE,72,5.0,10.0,65,0.00,,,0.00,213.000000,,2013-06-05 13:52:00,
2013-06-05 10:22:00,67.0,53.0,-100.00,ENE,77,7.0,10.0,60,0.00,,,0.00,273.000000,,2013-06-05 14:22:00,
2013-06-05 10:32:00,67.0,53.0,-100.00,ENE,77,7.0,10.0,60,0.00,,,0.00,273.000000,,2013-06-05 14:32:00,
2013-06-05 10:42:00,67.0,53.0,-100.00,ENE,77,7.0,10.0,60,0.00,,,0.00,273.000000,,2013-06-05 14:42:00,
2013-06-05 10:52:00,67.0,53.0,-100.00,ENE,77,7.0,10.0,60,0.00,,,0.00,273.000000,,2013-06-05 14:52:00,
2013-06-05 11:23:00,71.0,55.0,-100.00,ENE,68,6.0,9.0,57,0.00,,,0.00,424.000000,,2013-06-05 15:23:00,
2013-06-05 11:33:00,71.0,55.0,-100.00,ENE,68,6.0,9.0,57,0.00,,,0.00,424.000000,,2013-06-05 15:33:00,
2013-06-05 11:43:00,71.0,55.0,-100.00,ENE,68,6.0,9.0,57,0.00,,,0.00,424.000000,,2013-06-05 15:43:00,
2013-06-05 11:53:00,71.0,55.0,-100.00,ENE,68,6.0,9.0,57,0.00,,,0.00,424.000000,,2013-06-05 15:53:00,
2013-06-05 12:23:00,75.0,58.0,-100.00,ENE,66,4.0,10.0,56,0.00,,,0.00,513.000000,,2013-06-05 16:23:00,
2013-06-05 12:32:00,75.0,58.0,-100.00,ENE,66,4.0,10.0,56,0.00,,,0.00,513.000000,,2013-06-05 16:32:00,
2013-06-05 12:42:00,75.0,58.0,-100.00,ENE,66,4.0,10.0,56,0.00,,,0.00,513.000000,,2013-06-05 16:42:00,
2013-06-05 12:54:00,75.0,58.0,-100.00,ENE,66,4.0,10.0,56,0.00,,,0.00,513.000000,,2013-06-05 16:54:00,
2013-06-05 13:22:00,79.0,60.0,-100.00,East,80,3.0,9.0,53,0.00,,,0.00,563.000000,,2013-06-05 17:22:00,
2013-06-05 13:33:00,79.0,60.0,-100.00,East,80,3.0,9.0,53,0.00,,,0.00,563.000000,,2013-06-05 17:33:00,
2013-06-05 13:43:00,79.0,60.0,-100.00,East,80,3.0,9.0,53,0.00,,,0.00,563.000000,,2013-06-05 17:43:00,
2013-06-05 13:52:00,79.0,60.0,-100.00,East,80,3.0,9.0,53,0.00,,,0.00,563.000000,,2013-06-05 17:52:00,
2013-06-05 14:23:00,80.0,60.0,-100.00,NE,51,4.0,10.0,51,0.00,,,0.00,478.000000,,2013-06-05 18:23:00,
2013-06-05 14:32:00,80.0,60.0,-100.00,NE,51,4.0,10.0,51,0.00,,,0.00,478.000000,,2013-06-05 18:32:00,
2013-06-05 14:42:00,80.0,60.0,-100.00,NE,51,4.0,10.0,51,0.00,,,0.00,478.000000,,2013-06-05 18:42:00,
2013-06-05 14:52:00,80.0,60.0,-100.00,NE,51,4.0,10.0,51,0.00,,,0.00,478.000000,,2013-06-05 18:52:00,
2013-06-05 15:23:00,80.0,60.0,-100.00,SE,124,5.0,11.0,51,0.00,,,0.00,548.000000,,2013-06-05 19:23:00,
2013-06-05 15:32:00,80.0,60.0,-100.00,SE,124,5.0,11.0,51,0.00,,,0.00,548.000000,,2013-06-05 19:32:00,
2013-06-05 15:42:00,80.0,60.0,-100.00,SE,124,5.0,11.0,51,0.00,,,0.00,548.000000,,2013-06-05 19:42:00,
2013-06-05 15:52:00,80.0,60.0,-100.00,SE,124,5.0,11.0,51,0.00,,,0.00,548.000000,,2013-06-05 19:52:00,
2013-06-05 16:23:00,82.0,60.0,-100.00,SSW,209,3.0,9.0,47,0.00,,,0.00,337.000000,,2013-06-05 20:23:00,
2013-06-05 16:32:00,82.0,60.0,-100.00,SSW,209,3.0,9.0,47,0.00,,,0.00,337.000000,,2013-06-05 20:32:00,
2013-06-05 16:42:00,82.0,60.0,-100.00,SSW,209,3.0,9.0,47,0.00,,,0.00,337.000000,,2013-06-05 20:42:00,
2013-06-05 16:52:00,82.0,60.0,-100.00,SSW,209,3.0,9.0,47,0.00,,,0.00,337.000000,,2013-06-05 20:52:00,
2013-06-05 17:22:00,80.0,63.0,-100.00,East,84,3.0,8.0,57,0.00,,,0.00,248.000000,,2013-06-05 21:22:00,
2013-06-05 17:33:00,80.0,63.0,-100.00,East,84,3.0,8.0,57,0.00,,,0.00,248.000000,,2013-06-05 21:33:00,
2013-06-05 17:43:00,80.0,63.0,-100.00,East,84,3.0,8.0,57,0.00,,,0.00,248.000000,,2013-06-05 21:43:00,
2013-06-05 17:53:00,80.0,63.0,-100.00,East,84,3.0,8.0,57,0.00,,,0.00,248.000000,,2013-06-05 21:53:00,
2013-06-05 18:22:00,75.0,65.0,-100.00,ESE,121,4.0,8.0,70,0.00,,,0.00,84.000000,,2013-06-05 22:22:00,
2013-06-05 18:33:00,75.0,65.0,-100.00,ESE,121,4.0,8.0,70,0.00,,,0.00,84.000000,,2013-06-05 22:33:00,
2013-06-05 18:42:00,75.0,65.0,-100.00,ESE,121,4.0,8.0,70,0.00,,,0.00,84.000000,,2013-06-05 22:42:00,
2013-06-05 18:52:00,75.0,65.0,-100.00,ESE,121,4.0,8.0,70,0.00,,,0.00,84.000000,,2013-06-05 22:52:00,
2013-06-05 19:22:00,70.0,63.0,-100.00,East,84,4.0,10.0,79,0.00,,,0.00,59.000000,,2013-06-05 23:22:00,
2013-06-05 19:32:00,70.0,63.0,-100.00,East,84,4.0,10.0,79,0.00,,,0.00,59.000000,,2013-06-05 23:32:00,
2013-06-05 19:42:00,70.0,63.0,-100.00,East,84,4.0,10.0,79,0.00,,,0.00,59.000000,,2013-06-05 23:42:00,
2013-06-05 19:53:00,70.0,63.0,-100.00,East,84,4.0,10.0,79,0.00,,,0.00,59.000000,,2013-06-05 23:53:00,
2013-06-05 20:22:00,72.0,65.0,-100.00,East,94,4.0,6.0,80,0.00,,,0.00,60.000000,,2013-06-06 00:22:00,
2013-06-05 20:32:00,72.0,65.0,-100.00,East,94,4.0,6.0,80,0.00,,,0.00,60.000000,,2013-06-06 00:32:00,
2013-06-05 20:43:00,72.0,65.0,-100.00,East,94,4.0,6.0,80,0.00,,,0.00,60.000000,,2013-06-06 00:43:00,
2013-06-05 20:52:00,72.0,65.0,-100.00,East,94,4.0,6.0,80,0.00,,,0.00,60.000000,,2013-06-06 00:52:00,
2013-06-05 21:22:00,68.0,65.0,-100.00,East,101,2.0,6.0,89,0.00,,,0.00,22.000000,,2013-06-06 01:22:00,
2013-06-05 21:32:00,68.0,65.0,-100.00,East,101,2.0,6.0,89,0.00,,,0.00,22.000000,,2013-06-06 01:32:00,
2013-06-05 21:42:00,68.0,65.0,-100.00,East,101,2.0,6.0,89,0.00,,,0.00,22.000000,,2013-06-06 01:42:00,
2013-06-05 21:52:00,68.0,65.0,-100.00,East,101,2.0,6.0,89,0.00,,,0.00,22.000000,,2013-06-06 01:52:00,
2013-06-05 22:22:00,66.0,64.0,-100.00,East,96,1.0,5.0,93,0.00,,,0.00,0.000000,,2013-06-06 02:22:00,
2013-06-05 22:32:00,66.0,64.0,-100.00,East,96,1.0,5.0,93,0.00,,,0.00,0.000000,,2013-06-06 02:32:00,
2013-06-05 22:42:00,66.0,64.0,-100.00,East,96,1.0,5.0,93,0.00,,,0.00,0.000000,,2013-06-06 02:42:00,
2013-06-05 22:52:00,66.0,64.0,-100.00,East,96,1.0,5.0,93,0.00,,,0.00,0.000000,,2013-06-06 02:52:00,
2013-06-05 23:22:00,64.0,63.0,-100.00,ENE,68,0.0,4.0,96,0.00,,,-99.99,0.000000,,2013-06-06 03:22:00,
2013-06-05 23:33:00,64.0,63.0,-100.00,ENE,68,0.0,4.0,96,0.00,,,-99.99,0.000000,,2013-06-06 03:33:00,
2013-06-05 23:43:00,64.0,63.0,-100.00,ENE,68,0.0,4.0,96,0.00,,,-99.99,0.000000,,2013-06-06 03:43:00,
2013-06-05 23:52:00,64.0,63.0,-100.00,ENE,68,0.0,4.0,96,0.00,,,-99.99,0.000000,,2013-06-06 03:52:00,